sensor_id;sensor_type;location;lat;lon;timestamp;P1;durP1;ratioP1;P2;durP2;ratioP2
1344;SDS011;15375;48.540;9.268;2023-06-19T00:01:26;9.00;;;8.30;;
1344;SDS011;15375;48.540;9.268;2023-06-19T00:03:51;9.43;;;8.63;;
1344;SDS011;15375;48.540;9.268;2023-06-19T00:06:16;9.00;;;8.30;;
1344;SDS011;15375;48.540;9.268;2023-06-19T00:08:42;9.47;;;8.67;;
1344;SDS011;15375;48.540;9.268;2023-06-19T00:11:07;9.90;;;9.10;;
1344;SDS011;15375;48.540;9.268;2023-06-19T00:13:32;9.90;;;9.00;;
1344;SDS011;15375;48.540;9.268;2023-06-19T00:15:59;8.50;;;7.90;;
1344;SDS011;15375;48.540;9.268;2023-06-19T00:18:25;8.50;;;7.87;;
1344;SDS011;15375;48.540;9.268;2023-06-19T00:20:51;10.13;;;9.20;;
1344;SDS011;15375;48.540;9.268;2023-06-19T00:23:19;10.00;;;9.20;;
1344;SDS011;15375;48.540;9.268;2023-06-19T00:25:44;9.47;;;8.60;;
1344;SDS011;15375;48.540;9.268;2023-06-19T00:28:10;11.43;;;10.40;;
1344;SDS011;15375;48.540;9.268;2023-06-19T00:30:39;9.90;;;9.10;;
1344;SDS011;15375;48.540;9.268;2023-06-19T00:33:05;10.47;;;9.47;;
1344;SDS011;15375;48.540;9.268;2023-06-19T00:35:30;10.17;;;9.17;;
1344;SDS011;15375;48.540;9.268;2023-06-19T00:37:56;13.00;;;8.73;;
1344;SDS011;15375;48.540;9.268;2023-06-19T00:40:26;8.73;;;8.03;;
1344;SDS011;15375;48.540;9.268;2023-06-19T00:42:56;9.30;;;8.50;;
1344;SDS011;15375;48.540;9.268;2023-06-19T00:45:22;10.27;;;9.30;;
1344;SDS011;15375;48.540;9.268;2023-06-19T00:47:48;9.80;;;9.00;;
1344;SDS011;15375;48.540;9.268;2023-06-19T00:50:14;9.37;;;8.57;;
1344;SDS011;15375;48.540;9.268;2023-06-19T00:52:40;9.23;;;8.33;;
1344;SDS011;15375;48.540;9.268;2023-06-19T00:55:05;8.93;;;8.23;;
1344;SDS011;15375;48.540;9.268;2023-06-19T00:57:32;8.60;;;7.93;;
1344;SDS011;15375;48.540;9.268;2023-06-19T00:59:58;9.53;;;8.63;;
1344;SDS011;15375;48.540;9.268;2023-06-19T01:02:24;9.40;;;8.70;;
1344;SDS011;15375;48.540;9.268;2023-06-19T01:04:50;9.27;;;8.57;;
1344;SDS011;15375;48.540;9.268;2023-06-19T01:07:17;9.37;;;8.67;;
1344;SDS011;15375;48.540;9.268;2023-06-19T01:09:53;8.17;;;7.57;;
1344;SDS011;15375;48.540;9.268;2023-06-19T01:12:25;9.53;;;8.53;;
1344;SDS011;15375;48.540;9.268;2023-06-19T01:14:59;10.30;;;9.40;;
1344;SDS011;15375;48.540;9.268;2023-06-19T01:17:28;9.60;;;8.70;;
1344;SDS011;15375;48.540;9.268;2023-06-19T01:19:55;9.60;;;8.70;;
1344;SDS011;15375;48.540;9.268;2023-06-19T01:22:23;8.97;;;8.27;;
1344;SDS011;15375;48.540;9.268;2023-06-19T01:24:57;9.43;;;8.73;;
1344;SDS011;15375;48.540;9.268;2023-06-19T01:27:24;9.50;;;8.57;;
1344;SDS011;15375;48.540;9.268;2023-06-19T01:29:50;10.53;;;9.50;;
1344;SDS011;15375;48.540;9.268;2023-06-19T01:32:20;10.80;;;9.90;;
1344;SDS011;15375;48.540;9.268;2023-06-19T01:34:53;9.40;;;8.60;;
1344;SDS011;15375;48.540;9.268;2023-06-19T01:37:22;9.43;;;8.70;;
1344;SDS011;15375;48.540;9.268;2023-06-19T01:39:54;11.07;;;9.20;;
1344;SDS011;15375;48.540;9.268;2023-06-19T01:42:21;12.57;;;8.60;;
1344;SDS011;15375;48.540;9.268;2023-06-19T01:44:47;9.13;;;8.33;;
1344;SDS011;15375;48.540;9.268;2023-06-19T01:47:14;9.50;;;8.77;;
1344;SDS011;15375;48.540;9.268;2023-06-19T01:49:44;11.73;;;10.67;;
1344;SDS011;15375;48.540;9.268;2023-06-19T01:52:10;11.30;;;10.30;;
1344;SDS011;15375;48.540;9.268;2023-06-19T01:54:36;10.00;;;8.83;;
1344;SDS011;15375;48.540;9.268;2023-06-19T01:57:01;10.27;;;9.27;;
1344;SDS011;15375;48.540;9.268;2023-06-19T01:59:27;10.63;;;9.53;;
1344;SDS011;15375;48.540;9.268;2023-06-19T02:01:52;9.50;;;8.50;;
1344;SDS011;15375;48.540;9.268;2023-06-19T02:04:18;9.70;;;8.93;;
1344;SDS011;15375;48.540;9.268;2023-06-19T02:06:43;9.43;;;8.63;;
1344;SDS011;15375;48.540;9.268;2023-06-19T02:09:08;9.90;;;9.00;;
1344;SDS011;15375;48.540;9.268;2023-06-19T02:11:34;9.43;;;8.67;;
1344;SDS011;15375;48.540;9.268;2023-06-19T02:13:59;10.70;;;9.60;;
1344;SDS011;15375;48.540;9.268;2023-06-19T02:16:24;9.17;;;8.37;;
1344;SDS011;15375;48.540;9.268;2023-06-19T02:18:50;10.00;;;9.20;;
1344;SDS011;15375;48.540;9.268;2023-06-19T02:21:15;8.93;;;8.23;;
1344;SDS011;15375;48.540;9.268;2023-06-19T02:23:41;9.30;;;8.40;;
1344;SDS011;15375;48.540;9.268;2023-06-19T02:26:06;9.90;;;9.10;;
1344;SDS011;15375;48.540;9.268;2023-06-19T02:28:31;8.70;;;8.00;;
1344;SDS011;15375;48.540;9.268;2023-06-19T02:30:57;9.23;;;8.53;;
1344;SDS011;15375;48.540;9.268;2023-06-19T02:33:22;9.57;;;8.53;;
1344;SDS011;15375;48.540;9.268;2023-06-19T02:35:48;10.03;;;9.17;;
1344;SDS011;15375;48.540;9.268;2023-06-19T02:38:13;9.37;;;8.43;;
1344;SDS011;15375;48.540;9.268;2023-06-19T02:40:39;8.80;;;8.10;;
1344;SDS011;15375;48.540;9.268;2023-06-19T02:43:05;9.00;;;8.10;;
1344;SDS011;15375;48.540;9.268;2023-06-19T02:45:30;9.33;;;8.30;;
1344;SDS011;15375;48.540;9.268;2023-06-19T02:47:56;8.87;;;8.03;;
1344;SDS011;15375;48.540;9.268;2023-06-19T02:50:21;8.73;;;7.90;;
1344;SDS011;15375;48.540;9.268;2023-06-19T02:52:47;8.80;;;7.93;;
1344;SDS011;15375;48.540;9.268;2023-06-19T02:55:12;8.30;;;7.60;;
1344;SDS011;15375;48.540;9.268;2023-06-19T02:57:37;8.50;;;7.80;;
1344;SDS011;15375;48.540;9.268;2023-06-19T03:00:03;10.67;;;8.47;;
1344;SDS011;15375;48.540;9.268;2023-06-19T03:02:31;8.50;;;7.70;;
1344;SDS011;15375;48.540;9.268;2023-06-19T03:04:56;9.50;;;7.93;;
1344;SDS011;15375;48.540;9.268;2023-06-19T03:07:22;8.33;;;7.63;;
1344;SDS011;15375;48.540;9.268;2023-06-19T03:09:47;8.90;;;8.10;;
1344;SDS011;15375;48.540;9.268;2023-06-19T03:12:12;8.30;;;7.60;;
1344;SDS011;15375;48.540;9.268;2023-06-19T03:14:38;9.77;;;9.00;;
1344;SDS011;15375;48.540;9.268;2023-06-19T03:17:05;9.20;;;8.27;;
1344;SDS011;15375;48.540;9.268;2023-06-19T03:19:30;7.87;;;7.27;;
1344;SDS011;15375;48.540;9.268;2023-06-19T03:21:55;9.00;;;8.13;;
1344;SDS011;15375;48.540;9.268;2023-06-19T03:24:21;7.93;;;7.23;;
1344;SDS011;15375;48.540;9.268;2023-06-19T03:26:46;8.77;;;8.10;;
1344;SDS011;15375;48.540;9.268;2023-06-19T03:29:11;9.00;;;8.20;;
1344;SDS011;15375;48.540;9.268;2023-06-19T03:31:37;8.53;;;7.83;;
1344;SDS011;15375;48.540;9.268;2023-06-19T03:34:04;7.73;;;6.93;;
1344;SDS011;15375;48.540;9.268;2023-06-19T03:36:30;8.43;;;7.73;;
1344;SDS011;15375;48.540;9.268;2023-06-19T03:38:55;7.90;;;7.20;;
1344;SDS011;15375;48.540;9.268;2023-06-19T03:41:21;9.27;;;8.57;;
1344;SDS011;15375;48.540;9.268;2023-06-19T03:43:46;8.17;;;7.57;;
1344;SDS011;15375;48.540;9.268;2023-06-19T03:46:12;7.70;;;6.90;;
1344;SDS011;15375;48.540;9.268;2023-06-19T03:48:37;7.70;;;6.87;;
1344;SDS011;15375;48.540;9.268;2023-06-19T03:51:02;7.60;;;7.00;;
1344;SDS011;15375;48.540;9.268;2023-06-19T03:53:28;9.83;;;7.70;;
1344;SDS011;15375;48.540;9.268;2023-06-19T03:55:54;9.77;;;7.30;;
1344;SDS011;15375;48.540;9.268;2023-06-19T03:58:19;8.17;;;6.93;;
1344;SDS011;15375;48.540;9.268;2023-06-19T04:00:45;7.00;;;6.30;;
1344;SDS011;15375;48.540;9.268;2023-06-19T04:03:10;7.57;;;6.87;;
1344;SDS011;15375;48.540;9.268;2023-06-19T04:05:35;7.43;;;6.60;;
1344;SDS011;15375;48.540;9.268;2023-06-19T04:08:01;7.10;;;5.77;;
1344;SDS011;15375;48.540;9.268;2023-06-19T04:10:26;6.60;;;6.10;;
1344;SDS011;15375;48.540;9.268;2023-06-19T04:12:52;6.73;;;6.10;;
1344;SDS011;15375;48.540;9.268;2023-06-19T04:15:20;5.97;;;5.47;;
1344;SDS011;15375;48.540;9.268;2023-06-19T04:17:46;5.67;;;4.47;;
1344;SDS011;15375;48.540;9.268;2023-06-19T04:20:11;5.33;;;4.83;;
1344;SDS011;15375;48.540;9.268;2023-06-19T04:22:37;6.47;;;5.97;;
1344;SDS011;15375;48.540;9.268;2023-06-19T04:25:05;5.40;;;5.00;;
1344;SDS011;15375;48.540;9.268;2023-06-19T04:27:31;4.90;;;4.60;;
1344;SDS011;15375;48.540;9.268;2023-06-19T04:29:57;7.17;;;5.20;;
1344;SDS011;15375;48.540;9.268;2023-06-19T04:32:22;5.80;;;5.40;;
1344;SDS011;15375;48.540;9.268;2023-06-19T04:34:47;5.47;;;4.67;;
1344;SDS011;15375;48.540;9.268;2023-06-19T04:37:13;5.80;;;4.83;;
1344;SDS011;15375;48.540;9.268;2023-06-19T04:39:44;5.23;;;4.83;;
1344;SDS011;15375;48.540;9.268;2023-06-19T04:42:09;4.90;;;4.50;;
1344;SDS011;15375;48.540;9.268;2023-06-19T04:44:35;5.40;;;4.90;;
1344;SDS011;15375;48.540;9.268;2023-06-19T04:47:00;5.27;;;4.73;;
1344;SDS011;15375;48.540;9.268;2023-06-19T04:49:29;5.37;;;4.87;;
1344;SDS011;15375;48.540;9.268;2023-06-19T04:51:55;5.47;;;4.97;;
1344;SDS011;15375;48.540;9.268;2023-06-19T04:54:21;6.13;;;5.47;;
1344;SDS011;15375;48.540;9.268;2023-06-19T04:56:47;4.90;;;4.50;;
1344;SDS011;15375;48.540;9.268;2023-06-19T04:59:12;5.30;;;4.90;;
1344;SDS011;15375;48.540;9.268;2023-06-19T05:01:38;4.73;;;4.20;;
1344;SDS011;15375;48.540;9.268;2023-06-19T05:04:05;4.60;;;4.20;;
1344;SDS011;15375;48.540;9.268;2023-06-19T05:06:30;5.43;;;3.80;;
1344;SDS011;15375;48.540;9.268;2023-06-19T05:08:56;5.07;;;4.67;;
1344;SDS011;15375;48.540;9.268;2023-06-19T05:11:21;4.30;;;4.00;;
1344;SDS011;15375;48.540;9.268;2023-06-19T05:13:47;7.73;;;3.60;;
1344;SDS011;15375;48.540;9.268;2023-06-19T05:16:12;4.57;;;3.67;;
1344;SDS011;15375;48.540;9.268;2023-06-19T05:18:42;4.40;;;3.93;;
1344;SDS011;15375;48.540;9.268;2023-06-19T05:21:08;3.20;;;3.00;;
1344;SDS011;15375;48.540;9.268;2023-06-19T05:23:34;3.33;;;3.03;;
1344;SDS011;15375;48.540;9.268;2023-06-19T05:26:00;3.00;;;2.80;;
1344;SDS011;15375;48.540;9.268;2023-06-19T05:28:25;3.23;;;2.93;;
1344;SDS011;15375;48.540;9.268;2023-06-19T05:30:51;3.37;;;3.07;;
1344;SDS011;15375;48.540;9.268;2023-06-19T05:33:16;2.53;;;2.40;;
1344;SDS011;15375;48.540;9.268;2023-06-19T05:35:42;3.27;;;2.97;;
1344;SDS011;15375;48.540;9.268;2023-06-19T05:38:08;3.07;;;2.53;;
1344;SDS011;15375;48.540;9.268;2023-06-19T05:40:34;3.13;;;2.87;;
1344;SDS011;15375;48.540;9.268;2023-06-19T05:43:00;3.47;;;3.27;;
1344;SDS011;15375;48.540;9.268;2023-06-19T05:45:25;4.20;;;3.07;;
1344;SDS011;15375;48.540;9.268;2023-06-19T05:47:50;3.50;;;3.20;;
1344;SDS011;15375;48.540;9.268;2023-06-19T05:50:16;5.00;;;2.90;;
1344;SDS011;15375;48.540;9.268;2023-06-19T05:52:41;3.30;;;2.80;;
1344;SDS011;15375;48.540;9.268;2023-06-19T05:55:18;3.87;;;3.57;;
1344;SDS011;15375;48.540;9.268;2023-06-19T05:57:43;3.20;;;3.00;;
1344;SDS011;15375;48.540;9.268;2023-06-19T06:00:09;2.97;;;2.77;;
1344;SDS011;15375;48.540;9.268;2023-06-19T06:02:40;4.30;;;2.83;;
1344;SDS011;15375;48.540;9.268;2023-06-19T06:05:06;3.40;;;3.10;;
1344;SDS011;15375;48.540;9.268;2023-06-19T06:07:33;3.27;;;3.03;;
1344;SDS011;15375;48.540;9.268;2023-06-19T06:09:59;3.47;;;3.20;;
1344;SDS011;15375;48.540;9.268;2023-06-19T06:12:24;3.30;;;2.77;;
1344;SDS011;15375;48.540;9.268;2023-06-19T06:14:49;3.70;;;3.40;;
1344;SDS011;15375;48.540;9.268;2023-06-19T06:17:15;2.93;;;2.73;;
1344;SDS011;15375;48.540;9.268;2023-06-19T06:19:40;3.73;;;3.53;;
1344;SDS011;15375;48.540;9.268;2023-06-19T06:22:06;3.40;;;3.10;;
1344;SDS011;15375;48.540;9.268;2023-06-19T06:24:31;3.10;;;2.90;;
1344;SDS011;15375;48.540;9.268;2023-06-19T06:26:56;3.70;;;3.40;;
1344;SDS011;15375;48.540;9.268;2023-06-19T06:29:23;3.67;;;3.37;;
1344;SDS011;15375;48.540;9.268;2023-06-19T06:31:49;3.80;;;3.40;;
1344;SDS011;15375;48.540;9.268;2023-06-19T06:34:17;4.23;;;3.83;;
1344;SDS011;15375;48.540;9.268;2023-06-19T06:36:44;4.80;;;3.40;;
1344;SDS011;15375;48.540;9.268;2023-06-19T06:39:09;4.30;;;3.90;;
1344;SDS011;15375;48.540;9.268;2023-06-19T06:41:35;3.80;;;3.47;;
1344;SDS011;15375;48.540;9.268;2023-06-19T06:44:01;4.07;;;3.67;;
1344;SDS011;15375;48.540;9.268;2023-06-19T06:46:26;3.80;;;3.50;;
1344;SDS011;15375;48.540;9.268;2023-06-19T06:48:52;4.37;;;3.93;;
1344;SDS011;15375;48.540;9.268;2023-06-19T06:51:18;4.20;;;3.90;;
1344;SDS011;15375;48.540;9.268;2023-06-19T06:53:43;5.67;;;5.27;;
1344;SDS011;15375;48.540;9.268;2023-06-19T06:56:08;4.17;;;3.77;;
1344;SDS011;15375;48.540;9.268;2023-06-19T06:58:34;4.27;;;3.83;;
1344;SDS011;15375;48.540;9.268;2023-06-19T07:00:59;4.37;;;4.00;;
1344;SDS011;15375;48.540;9.268;2023-06-19T07:03:24;5.03;;;4.60;;
1344;SDS011;15375;48.540;9.268;2023-06-19T07:05:50;4.90;;;4.50;;
1344;SDS011;15375;48.540;9.268;2023-06-19T07:08:15;5.73;;;5.00;;
1344;SDS011;15375;48.540;9.268;2023-06-19T07:10:40;5.00;;;4.50;;
1344;SDS011;15375;48.540;9.268;2023-06-19T07:13:06;4.33;;;3.93;;
1344;SDS011;15375;48.540;9.268;2023-06-19T07:15:31;4.47;;;4.07;;
1344;SDS011;15375;48.540;9.268;2023-06-19T07:17:56;4.77;;;4.23;;
1344;SDS011;15375;48.540;9.268;2023-06-19T07:20:22;4.90;;;4.13;;
1344;SDS011;15375;48.540;9.268;2023-06-19T07:22:49;4.27;;;3.93;;
1344;SDS011;15375;48.540;9.268;2023-06-19T07:25:15;4.30;;;3.93;;
1344;SDS011;15375;48.540;9.268;2023-06-19T07:27:41;5.03;;;4.67;;
1344;SDS011;15375;48.540;9.268;2023-06-19T07:30:06;6.20;;;4.60;;
1344;SDS011;15375;48.540;9.268;2023-06-19T07:32:32;4.43;;;4.13;;
1344;SDS011;15375;48.540;9.268;2023-06-19T07:34:58;4.80;;;4.40;;
1344;SDS011;15375;48.540;9.268;2023-06-19T07:37:23;4.17;;;3.80;;
1344;SDS011;15375;48.540;9.268;2023-06-19T07:39:50;4.37;;;3.90;;
1344;SDS011;15375;48.540;9.268;2023-06-19T07:42:16;4.63;;;4.30;;
1344;SDS011;15375;48.540;9.268;2023-06-19T07:44:43;4.47;;;4.17;;
1344;SDS011;15375;48.540;9.268;2023-06-19T07:47:09;4.40;;;4.00;;
1344;SDS011;15375;48.540;9.268;2023-06-19T07:49:35;5.67;;;4.00;;
1344;SDS011;15375;48.540;9.268;2023-06-19T07:52:02;4.20;;;3.90;;
1344;SDS011;15375;48.540;9.268;2023-06-19T07:54:28;4.63;;;4.23;;
1344;SDS011;15375;48.540;9.268;2023-06-19T07:56:53;4.43;;;4.03;;
1344;SDS011;15375;48.540;9.268;2023-06-19T07:59:19;4.07;;;3.63;;
1344;SDS011;15375;48.540;9.268;2023-06-19T08:01:45;5.03;;;3.93;;
1344;SDS011;15375;48.540;9.268;2023-06-19T08:04:10;4.47;;;4.07;;
1344;SDS011;15375;48.540;9.268;2023-06-19T08:06:35;4.50;;;4.03;;
1344;SDS011;15375;48.540;9.268;2023-06-19T08:09:02;3.93;;;3.63;;
1344;SDS011;15375;48.540;9.268;2023-06-19T08:11:28;4.30;;;4.00;;
1344;SDS011;15375;48.540;9.268;2023-06-19T08:13:53;3.43;;;3.23;;
1344;SDS011;15375;48.540;9.268;2023-06-19T08:16:18;4.73;;;4.40;;
1344;SDS011;15375;48.540;9.268;2023-06-19T08:18:44;5.30;;;4.83;;
1344;SDS011;15375;48.540;9.268;2023-06-19T08:21:11;5.20;;;4.83;;
1344;SDS011;15375;48.540;9.268;2023-06-19T08:23:36;5.00;;;4.60;;
1344;SDS011;15375;48.540;9.268;2023-06-19T08:26:04;5.13;;;4.70;;
1344;SDS011;15375;48.540;9.268;2023-06-19T08:28:30;5.00;;;4.60;;
1344;SDS011;15375;48.540;9.268;2023-06-19T08:30:56;7.03;;;6.43;;
1344;SDS011;15375;48.540;9.268;2023-06-19T08:33:22;4.77;;;4.37;;
1344;SDS011;15375;48.540;9.268;2023-06-19T08:35:47;4.37;;;3.97;;
1344;SDS011;15375;48.540;9.268;2023-06-19T08:38:13;4.73;;;4.33;;
1344;SDS011;15375;48.540;9.268;2023-06-19T08:40:40;4.00;;;3.70;;
1344;SDS011;15375;48.540;9.268;2023-06-19T08:43:07;4.13;;;3.83;;
1344;SDS011;15375;48.540;9.268;2023-06-19T08:45:32;4.47;;;4.07;;
1344;SDS011;15375;48.540;9.268;2023-06-19T08:47:58;4.80;;;4.33;;
1344;SDS011;15375;48.540;9.268;2023-06-19T08:50:25;4.70;;;4.40;;
1344;SDS011;15375;48.540;9.268;2023-06-19T08:52:50;5.07;;;4.57;;
1344;SDS011;15375;48.540;9.268;2023-06-19T08:55:16;4.07;;;3.87;;
1344;SDS011;15375;48.540;9.268;2023-06-19T08:57:41;3.20;;;2.90;;
1344;SDS011;15375;48.540;9.268;2023-06-19T09:00:07;3.13;;;2.93;;
1344;SDS011;15375;48.540;9.268;2023-06-19T09:02:41;3.83;;;3.53;;
1344;SDS011;15375;48.540;9.268;2023-06-19T09:05:11;4.50;;;4.20;;
1344;SDS011;15375;48.540;9.268;2023-06-19T09:07:38;4.43;;;4.13;;
1344;SDS011;15375;48.540;9.268;2023-06-19T09:10:16;4.20;;;3.90;;
1344;SDS011;15375;48.540;9.268;2023-06-19T09:12:43;3.60;;;3.40;;
1344;SDS011;15375;48.540;9.268;2023-06-19T09:15:20;3.70;;;3.50;;
1344;SDS011;15375;48.540;9.268;2023-06-19T09:17:45;4.17;;;3.87;;
1344;SDS011;15375;48.540;9.268;2023-06-19T09:20:11;4.20;;;3.93;;
1344;SDS011;15375;48.540;9.268;2023-06-19T09:22:37;4.43;;;4.13;;
1344;SDS011;15375;48.540;9.268;2023-06-19T09:25:03;4.90;;;4.50;;
1344;SDS011;15375;48.540;9.268;2023-06-19T09:27:32;4.20;;;3.90;;
1344;SDS011;15375;48.540;9.268;2023-06-19T09:29:58;4.30;;;3.93;;
1344;SDS011;15375;48.540;9.268;2023-06-19T09:32:24;4.90;;;4.60;;
1344;SDS011;15375;48.540;9.268;2023-06-19T09:34:52;4.33;;;4.03;;
1344;SDS011;15375;48.540;9.268;2023-06-19T09:39:48;5.00;;;4.67;;
1344;SDS011;15375;48.540;9.268;2023-06-19T09:42:18;4.40;;;4.10;;
1344;SDS011;15375;48.540;9.268;2023-06-19T09:44:49;4.60;;;4.30;;
1344;SDS011;15375;48.540;9.268;2023-06-19T09:47:23;5.13;;;4.53;;
1344;SDS011;15375;48.540;9.268;2023-06-19T09:49:55;5.00;;;4.70;;
1344;SDS011;15375;48.540;9.268;2023-06-19T09:52:22;4.63;;;4.23;;
1344;SDS011;15375;48.540;9.268;2023-06-19T09:54:52;4.30;;;4.00;;
1344;SDS011;15375;48.540;9.268;2023-06-19T09:57:18;4.50;;;4.10;;
1344;SDS011;15375;48.540;9.268;2023-06-19T09:59:48;4.60;;;4.30;;
1344;SDS011;15375;48.540;9.268;2023-06-19T10:02:19;4.57;;;4.10;;
1344;SDS011;15375;48.540;9.268;2023-06-19T10:04:46;3.83;;;3.60;;
1344;SDS011;15375;48.540;9.268;2023-06-19T10:07:15;4.70;;;4.30;;
1344;SDS011;15375;48.540;9.268;2023-06-19T10:10:07;3.27;;;3.07;;
1344;SDS011;15375;48.540;9.268;2023-06-19T10:12:38;3.80;;;3.50;;
1344;SDS011;15375;48.540;9.268;2023-06-19T10:15:19;3.20;;;3.00;;
1344;SDS011;15375;48.540;9.268;2023-06-19T10:20:37;3.37;;;3.07;;
1344;SDS011;15375;48.540;9.268;2023-06-19T10:23:16;3.30;;;3.10;;
1344;SDS011;15375;48.540;9.268;2023-06-19T10:25:47;3.57;;;3.00;;
1344;SDS011;15375;48.540;9.268;2023-06-19T10:30:51;3.53;;;3.33;;
1344;SDS011;15375;48.540;9.268;2023-06-19T10:33:27;4.53;;;3.10;;
1344;SDS011;15375;48.540;9.268;2023-06-19T10:35:54;3.50;;;3.30;;
1344;SDS011;15375;48.540;9.268;2023-06-19T10:38:19;4.63;;;3.30;;
1344;SDS011;15375;48.540;9.268;2023-06-19T10:40:45;3.93;;;3.67;;
1344;SDS011;15375;48.540;9.268;2023-06-19T10:43:11;4.30;;;4.00;;
1344;SDS011;15375;48.540;9.268;2023-06-19T10:45:38;3.70;;;3.50;;
1344;SDS011;15375;48.540;9.268;2023-06-19T10:48:03;3.23;;;3.03;;
1344;SDS011;15375;48.540;9.268;2023-06-19T10:50:29;3.90;;;3.60;;
1344;SDS011;15375;48.540;9.268;2023-06-19T10:52:58;3.27;;;2.97;;
1344;SDS011;15375;48.540;9.268;2023-06-19T10:55:24;3.80;;;3.50;;
1344;SDS011;15375;48.540;9.268;2023-06-19T10:57:50;4.50;;;4.20;;
1344;SDS011;15375;48.540;9.268;2023-06-19T11:00:28;4.27;;;3.97;;
1344;SDS011;15375;48.540;9.268;2023-06-19T11:02:55;4.37;;;4.07;;
1344;SDS011;15375;48.540;9.268;2023-06-19T11:05:22;4.60;;;4.30;;
1344;SDS011;15375;48.540;9.268;2023-06-19T11:10:20;4.47;;;4.07;;
1344;SDS011;15375;48.540;9.268;2023-06-19T11:12:47;4.10;;;3.80;;
1344;SDS011;15375;48.540;9.268;2023-06-19T11:15:13;4.20;;;3.90;;
1344;SDS011;15375;48.540;9.268;2023-06-19T11:17:39;4.83;;;4.40;;
1344;SDS011;15375;48.540;9.268;2023-06-19T11:20:08;3.90;;;3.60;;
1344;SDS011;15375;48.540;9.268;2023-06-19T11:22:39;4.33;;;4.03;;
1344;SDS011;15375;48.540;9.268;2023-06-19T11:25:06;3.63;;;3.33;;
1344;SDS011;15375;48.540;9.268;2023-06-19T11:27:32;4.07;;;3.77;;
1344;SDS011;15375;48.540;9.268;2023-06-19T11:29:58;4.70;;;4.07;;
1344;SDS011;15375;48.540;9.268;2023-06-19T11:32:24;4.80;;;4.50;;
1344;SDS011;15375;48.540;9.268;2023-06-19T11:34:56;4.63;;;4.23;;
1344;SDS011;15375;48.540;9.268;2023-06-19T11:37:22;4.93;;;4.63;;
1344;SDS011;15375;48.540;9.268;2023-06-19T11:39:48;5.07;;;4.67;;
1344;SDS011;15375;48.540;9.268;2023-06-19T11:42:16;4.53;;;4.23;;
1344;SDS011;15375;48.540;9.268;2023-06-19T11:44:59;4.50;;;4.20;;
1344;SDS011;15375;48.540;9.268;2023-06-19T11:47:31;3.87;;;3.67;;
1344;SDS011;15375;48.540;9.268;2023-06-19T11:49:57;4.23;;;3.93;;
1344;SDS011;15375;48.540;9.268;2023-06-19T11:52:23;6.53;;;3.90;;
1344;SDS011;15375;48.540;9.268;2023-06-19T11:54:48;5.03;;;4.70;;
1344;SDS011;15375;48.540;9.268;2023-06-19T11:57:14;4.63;;;4.23;;
1344;SDS011;15375;48.540;9.268;2023-06-19T11:59:39;5.07;;;4.57;;
1344;SDS011;15375;48.540;9.268;2023-06-19T12:02:05;5.00;;;4.10;;
1344;SDS011;15375;48.540;9.268;2023-06-19T12:04:31;4.57;;;4.27;;
1344;SDS011;15375;48.540;9.268;2023-06-19T12:06:57;4.80;;;4.30;;
1344;SDS011;15375;48.540;9.268;2023-06-19T12:09:23;4.13;;;3.83;;
1344;SDS011;15375;48.540;9.268;2023-06-19T12:11:48;4.57;;;4.27;;
1344;SDS011;15375;48.540;9.268;2023-06-19T12:14:13;4.00;;;3.80;;
1344;SDS011;15375;48.540;9.268;2023-06-19T12:16:39;5.33;;;4.87;;
1344;SDS011;15375;48.540;9.268;2023-06-19T12:19:04;4.10;;;3.80;;
1344;SDS011;15375;48.540;9.268;2023-06-19T12:21:29;5.50;;;4.90;;
1344;SDS011;15375;48.540;9.268;2023-06-19T12:23:55;5.13;;;4.70;;
1344;SDS011;15375;48.540;9.268;2023-06-19T12:26:20;4.90;;;4.60;;
1344;SDS011;15375;48.540;9.268;2023-06-19T12:28:46;4.00;;;3.70;;
1344;SDS011;15375;48.540;9.268;2023-06-19T12:31:11;4.50;;;4.20;;
1344;SDS011;15375;48.540;9.268;2023-06-19T12:33:37;4.37;;;4.00;;
1344;SDS011;15375;48.540;9.268;2023-06-19T12:36:08;4.13;;;3.90;;
1344;SDS011;15375;48.540;9.268;2023-06-19T12:38:35;4.10;;;3.80;;
1344;SDS011;15375;48.540;9.268;2023-06-19T12:41:02;3.77;;;3.57;;
1344;SDS011;15375;48.540;9.268;2023-06-19T12:43:27;4.33;;;4.03;;
1344;SDS011;15375;48.540;9.268;2023-06-19T12:45:53;5.00;;;4.57;;
1344;SDS011;15375;48.540;9.268;2023-06-19T12:48:18;4.70;;;4.40;;
1344;SDS011;15375;48.540;9.268;2023-06-19T12:50:44;4.90;;;3.87;;
1344;SDS011;15375;48.540;9.268;2023-06-19T12:53:09;4.10;;;3.80;;
1344;SDS011;15375;48.540;9.268;2023-06-19T12:55:36;4.23;;;3.93;;
1344;SDS011;15375;48.540;9.268;2023-06-19T12:58:01;4.67;;;4.37;;
1344;SDS011;15375;48.540;9.268;2023-06-19T13:00:27;4.27;;;4.00;;
1344;SDS011;15375;48.540;9.268;2023-06-19T13:02:52;4.57;;;4.17;;
1344;SDS011;15375;48.540;9.268;2023-06-19T13:05:17;4.60;;;4.20;;
1344;SDS011;15375;48.540;9.268;2023-06-19T13:07:43;4.43;;;4.13;;
1344;SDS011;15375;48.540;9.268;2023-06-19T13:10:08;5.90;;;4.30;;
1344;SDS011;15375;48.540;9.268;2023-06-19T13:12:34;5.27;;;4.33;;
1344;SDS011;15375;48.540;9.268;2023-06-19T13:14:59;3.80;;;3.60;;
1344;SDS011;15375;48.540;9.268;2023-06-19T13:17:25;4.77;;;4.20;;
1344;SDS011;15375;48.540;9.268;2023-06-19T13:19:50;4.30;;;4.00;;
1344;SDS011;15375;48.540;9.268;2023-06-19T13:22:15;4.33;;;4.03;;
1344;SDS011;15375;48.540;9.268;2023-06-19T13:24:41;4.17;;;3.87;;
1344;SDS011;15375;48.540;9.268;2023-06-19T13:27:06;5.10;;;4.70;;
1344;SDS011;15375;48.540;9.268;2023-06-19T13:29:32;4.40;;;4.10;;
1344;SDS011;15375;48.540;9.268;2023-06-19T13:31:57;6.10;;;5.00;;
1344;SDS011;15375;48.540;9.268;2023-06-19T13:34:22;4.17;;;3.90;;
1344;SDS011;15375;48.540;9.268;2023-06-19T13:36:48;4.40;;;4.10;;
1344;SDS011;15375;48.540;9.268;2023-06-19T13:39:14;4.50;;;4.10;;
1344;SDS011;15375;48.540;9.268;2023-06-19T13:41:39;4.20;;;3.90;;
1344;SDS011;15375;48.540;9.268;2023-06-19T13:44:05;5.00;;;4.53;;
1344;SDS011;15375;48.540;9.268;2023-06-19T13:46:31;4.77;;;4.47;;
1344;SDS011;15375;48.540;9.268;2023-06-19T13:48:57;5.00;;;4.57;;
1344;SDS011;15375;48.540;9.268;2023-06-19T13:51:23;4.80;;;4.50;;
1344;SDS011;15375;48.540;9.268;2023-06-19T13:53:50;4.80;;;4.50;;
1344;SDS011;15375;48.540;9.268;2023-06-19T13:56:16;4.40;;;4.10;;
1344;SDS011;15375;48.540;9.268;2023-06-19T13:58:41;5.70;;;4.77;;
1344;SDS011;15375;48.540;9.268;2023-06-19T14:01:07;4.53;;;4.23;;
1344;SDS011;15375;48.540;9.268;2023-06-19T14:03:33;4.97;;;4.50;;
1344;SDS011;15375;48.540;9.268;2023-06-19T14:05:59;6.70;;;6.20;;
1344;SDS011;15375;48.540;9.268;2023-06-19T14:08:24;5.90;;;5.23;;
1344;SDS011;15375;48.540;9.268;2023-06-19T14:10:50;5.10;;;4.80;;
1344;SDS011;15375;48.540;9.268;2023-06-19T14:13:15;5.17;;;4.77;;
1344;SDS011;15375;48.540;9.268;2023-06-19T14:15:41;4.77;;;4.47;;
1344;SDS011;15375;48.540;9.268;2023-06-19T14:18:06;4.77;;;4.43;;
1344;SDS011;15375;48.540;9.268;2023-06-19T14:20:32;5.80;;;5.20;;
1344;SDS011;15375;48.540;9.268;2023-06-19T14:22:57;5.90;;;5.03;;
1344;SDS011;15375;48.540;9.268;2023-06-19T14:25:22;5.50;;;5.00;;
1344;SDS011;15375;48.540;9.268;2023-06-19T14:27:48;5.83;;;5.43;;
1344;SDS011;15375;48.540;9.268;2023-06-19T14:30:13;5.70;;;5.30;;
1344;SDS011;15375;48.540;9.268;2023-06-19T14:32:39;5.93;;;5.53;;
1344;SDS011;15375;48.540;9.268;2023-06-19T14:35:04;5.77;;;5.37;;
1344;SDS011;15375;48.540;9.268;2023-06-19T14:37:31;5.20;;;4.90;;
1344;SDS011;15375;48.540;9.268;2023-06-19T14:39:56;5.50;;;5.10;;
1344;SDS011;15375;48.540;9.268;2023-06-19T14:42:22;5.80;;;5.40;;
1344;SDS011;15375;48.540;9.268;2023-06-19T14:44:47;5.37;;;5.07;;
1344;SDS011;15375;48.540;9.268;2023-06-19T14:47:13;5.33;;;4.93;;
1344;SDS011;15375;48.540;9.268;2023-06-19T14:49:38;4.97;;;4.67;;
1344;SDS011;15375;48.540;9.268;2023-06-19T14:52:05;6.43;;;6.03;;
1344;SDS011;15375;48.540;9.268;2023-06-19T14:54:31;5.87;;;5.47;;
1344;SDS011;15375;48.540;9.268;2023-06-19T14:56:57;6.10;;;5.70;;
1344;SDS011;15375;48.540;9.268;2023-06-19T14:59:22;6.30;;;5.73;;
1344;SDS011;15375;48.540;9.268;2023-06-19T15:01:48;6.63;;;6.07;;
1344;SDS011;15375;48.540;9.268;2023-06-19T15:04:13;5.80;;;5.20;;
1344;SDS011;15375;48.540;9.268;2023-06-19T15:06:38;5.20;;;4.90;;